Newstead, New York
Current Conditions -  °F | °C
As of 5:54 PM on Thursday 18 Dec 2014 (Local Time) from KBUF Reporting Station
Freezing Drizzle Freezing Drizzle  
Wind Chill: 22°   Ceiling: 1000
Heat Index: 30°   Visibility: 6mi
Dew Point: 27°   Wind: 9mph
Humidity: 88%   Direction: 280°W
Pressure: 30.08"   Gusts: NA
Location:  43.0279°N, 78.5141°W
Report Text: KBUF 182254Z 28008KT 6SM -FZDZ BKN010 OVC017 M01/M03 A3008 RMK AO2 CIG 008V012 SLP197 FZDZB15 P0000 I1001 T10111028
Loading
Personal Weather Stations






























Interactive Weather Map New forecast layout! Learn more

10-Day Weather Forecast

Advertisements
Track Severe Weather on mobile